createdAt,value
2023-05-06T00:00:34.921Z,57.44
2023-05-06T00:05:39.417Z,57.01
2023-05-06T00:10:43.318Z,57.19
2023-05-06T00:15:47.816Z,56.97
2023-05-06T00:20:51.933Z,57.33
2023-05-06T00:25:56.006Z,56.45
2023-05-06T00:31:00.182Z,55.87
2023-05-06T00:36:04.117Z,55.67
2023-05-06T00:41:09.129Z,55.12
2023-05-06T00:46:16.199Z,54.02
2023-05-06T00:51:20.417Z,53.27
2023-05-06T00:56:24.684Z,52.24
2023-05-06T01:01:32.368Z,50.98
2023-05-06T01:06:57.831Z,50.42
2023-05-06T01:12:25.063Z,49.03
2023-05-06T01:17:32.638Z,47.72
2023-05-06T01:22:38.556Z,46.81
2023-05-06T01:27:42.449Z,45.58
2023-05-06T01:33:34.268Z,44.39
2023-05-06T01:38:53.411Z,43.49
2023-05-06T01:44:00.940Z,43.17
2023-05-06T01:49:12.316Z,42.08
2023-05-06T01:54:16.098Z,41.61
2023-05-06T01:59:20.272Z,41.06
2023-05-06T02:04:24.191Z,40.32
2023-05-06T02:09:28.381Z,39.29
2023-05-06T02:14:37.310Z,39.29
2023-05-06T02:19:42.048Z,39.03
2023-05-06T02:24:45.885Z,38.63
2023-05-06T02:29:50.055Z,38.07
2023-05-06T02:34:53.905Z,37.49
2023-05-06T02:39:59.111Z,36.58
2023-05-06T02:45:03.432Z,36.36
2023-05-06T02:50:09.388Z,36.13
2023-05-06T02:55:14.213Z,35.32
2023-05-06T03:00:18.665Z,35.13
2023-05-06T03:05:22.700Z,34.96
2023-05-06T03:10:26.814Z,34.50
2023-05-06T03:15:33.107Z,33.95
2023-05-06T03:20:37.200Z,33.79
2023-05-06T03:25:41.744Z,33.71
2023-05-06T03:30:45.922Z,33.88
2023-05-06T03:35:50.326Z,33.80
2023-05-06T03:40:54.644Z,33.65
2023-05-06T03:45:59.747Z,33.39
2023-05-06T03:51:03.923Z,32.49
2023-05-06T03:56:08.978Z,32.51
2023-05-06T04:01:15.523Z,32.34
2023-05-06T04:06:19.653Z,31.66
2023-05-06T04:11:24.329Z,31.66
2023-05-06T04:16:28.799Z,31.59
2023-05-06T04:21:32.972Z,31.17
2023-05-06T04:26:41.816Z,31.04
2023-05-06T04:31:47.060Z,31.39
2023-05-06T04:36:52.083Z,31.73
2023-05-06T04:42:12.076Z,31.70
2023-05-06T04:47:22.807Z,31.60
2023-05-06T04:52:29.097Z,31.34
2023-05-06T04:57:33.187Z,31.29
2023-05-06T05:02:37.834Z,30.55
2023-05-06T05:07:43.213Z,30.69
2023-05-06T05:12:47.370Z,30.55
2023-05-06T05:17:52.361Z,30.58
2023-05-06T05:22:59.096Z,30.64
2023-05-06T05:28:04.845Z,30.41
2023-05-06T05:33:10.888Z,29.95
2023-05-06T05:38:15.971Z,30.36
2023-05-06T05:43:22.163Z,30.17
2023-05-06T05:48:26.838Z,30.23
2023-05-06T05:53:31.918Z,30.72
2023-05-06T05:58:36.256Z,30.17
2023-05-06T06:03:40.655Z,30.81
2023-05-06T06:08:45.164Z,30.26
2023-05-06T06:13:51.750Z,29.63
2023-05-06T06:18:56.138Z,29.25
2023-05-06T06:24:00.257Z,28.98
2023-05-06T06:29:04.365Z,28.78
2023-05-06T06:34:10.519Z,28.38
2023-05-06T06:39:15.696Z,28.09
2023-05-06T06:44:19.668Z,28.85
2023-05-06T06:49:23.572Z,28.15
2023-05-06T06:54:27.458Z,27.72
2023-05-06T06:59:31.418Z,27.48
2023-05-06T07:04:35.337Z,27.70
2023-05-06T07:09:40.610Z,27.11
2023-05-06T07:14:44.672Z,27.04
2023-05-06T07:19:48.735Z,26.96
2023-05-06T07:24:52.662Z,26.84
2023-05-06T07:29:56.567Z,26.71
2023-05-06T07:35:00.615Z,26.66
2023-05-06T07:40:05.499Z,26.71
2023-05-06T07:45:10.130Z,26.91
2023-05-06T07:50:14.097Z,27.28
2023-05-06T07:55:18.132Z,27.56
2023-05-06T08:00:22.209Z,27.41
2023-05-06T08:05:26.200Z,26.88
2023-05-06T08:10:30.253Z,27.05
2023-05-06T08:15:34.384Z,26.61
2023-05-06T08:20:38.614Z,26.58
2023-05-06T08:25:42.695Z,26.60
2023-05-06T08:30:48.982Z,26.46
2023-05-06T08:35:53.058Z,27.00
2023-05-06T08:41:04.221Z,27.63
2023-05-06T08:46:08.513Z,27.87
2023-05-06T08:51:16.130Z,28.45
2023-05-06T08:56:22.974Z,28.17
2023-05-06T09:01:28.587Z,28.56
2023-05-06T09:06:32.590Z,27.94
2023-05-06T09:11:39.588Z,27.64
2023-05-06T09:16:46.111Z,27.96
2023-05-06T09:21:52.677Z,27.51
2023-05-06T09:26:57.549Z,27.02
2023-05-06T09:32:08.815Z,26.94
2023-05-06T09:37:13.367Z,26.65
2023-05-06T09:42:17.547Z,26.39
2023-05-06T09:47:24.709Z,26.69
2023-05-06T09:52:29.818Z,27.21
2023-05-06T09:57:34.378Z,27.20
2023-05-06T10:02:41.247Z,26.77
2023-05-06T10:07:48.867Z,26.25
2023-05-06T10:12:53.663Z,26.82
2023-05-06T10:18:00.441Z,26.51
2023-05-06T10:23:33.202Z,26.52
2023-05-06T10:28:44.214Z,26.04
2023-05-06T10:33:52.182Z,25.34
2023-05-06T10:38:57.964Z,24.35
2023-05-06T10:44:02.003Z,24.27
2023-05-06T10:49:07.184Z,24.86
2023-05-06T10:54:21.574Z,25.36
2023-05-06T10:59:26.551Z,25.65
2023-05-06T11:04:32.172Z,25.80
2023-05-06T11:09:56.784Z,26.22
2023-05-06T11:15:40.901Z,26.79
2023-05-06T11:20:44.897Z,26.30
2023-05-06T11:25:48.948Z,26.27
2023-05-06T11:30:56.705Z,26.57
2023-05-06T11:36:02.188Z,26.76
2023-05-06T11:41:06.154Z,27.24
2023-05-06T11:46:10.249Z,26.34
2023-05-06T11:51:14.397Z,24.04
2023-05-06T11:56:18.528Z,23.73
2023-05-06T12:01:22.770Z,24.14
2023-05-06T12:06:36.694Z,24.36
2023-05-06T12:11:43.646Z,24.32
2023-05-06T12:16:49.064Z,24.42
2023-05-06T12:21:53.352Z,24.48
2023-05-06T12:26:57.203Z,24.70
2023-05-06T12:32:12.503Z,25.12
2023-05-06T12:37:28.945Z,26.99
2023-05-06T12:42:32.964Z,27.30
2023-05-06T12:47:36.820Z,27.17
2023-05-06T12:52:45.807Z,26.58
2023-05-06T12:57:50.285Z,27.09
2023-05-06T13:02:54.259Z,27.56
2023-05-06T13:07:58.110Z,27.92
2023-05-06T13:13:02.114Z,28.29
2023-05-06T13:18:06.560Z,28.62
2023-05-06T13:23:10.843Z,28.94
2023-05-06T13:28:14.747Z,29.58
2023-05-06T13:33:18.743Z,29.60
2023-05-06T13:38:23.041Z,29.66
2023-05-06T13:43:26.980Z,30.97
2023-05-06T13:48:30.988Z,32.14
2023-05-06T13:53:35.555Z,33.39
2023-05-06T13:58:40.246Z,33.32
2023-05-06T14:03:44.111Z,34.61
2023-05-06T14:08:48.597Z,34.92
2023-05-06T14:13:52.622Z,35.40
2023-05-06T14:18:56.694Z,36.32
2023-05-06T14:24:01.157Z,37.35
2023-05-06T14:29:04.993Z,38.45
2023-05-06T14:34:09.158Z,39.12
2023-05-06T14:39:13.565Z,39.76
2023-05-06T14:44:17.431Z,40.26
2023-05-06T14:49:22.062Z,40.01
2023-05-06T14:54:27.379Z,40.57
2023-05-06T14:59:31.789Z,41.19
2023-05-06T15:04:37.305Z,41.43
2023-05-06T15:09:44.842Z,41.74
2023-05-06T15:14:48.786Z,40.41
2023-05-06T15:19:52.714Z,39.92
2023-05-06T15:24:56.674Z,39.48
2023-05-06T15:30:05.041Z,39.39
2023-05-06T15:35:09.595Z,39.44
2023-05-06T15:40:15.766Z,40.28
2023-05-06T15:45:20.325Z,40.31
2023-05-06T15:50:32.756Z,40.47
2023-05-06T15:55:46.497Z,40.64
2023-05-06T16:00:56.837Z,40.97
2023-05-06T16:06:00.845Z,41.45
2023-05-06T16:11:06.468Z,41.72
2023-05-06T16:16:10.368Z,42.39
2023-05-06T16:21:14.417Z,42.57
2023-05-06T16:26:18.691Z,43.16
2023-05-06T16:31:22.869Z,44.45
2023-05-06T16:36:29.129Z,45.67
2023-05-06T16:41:33.279Z,46.79
2023-05-06T16:46:37.269Z,47.24
2023-05-06T16:51:41.478Z,47.92
2023-05-06T16:56:52.213Z,48.20
2023-05-06T17:01:56.701Z,48.16
2023-05-06T17:07:00.599Z,48.10
2023-05-06T17:12:04.763Z,48.88
2023-05-06T17:17:08.621Z,48.95
2023-05-06T17:22:12.736Z,49.76
2023-05-06T17:27:17.150Z,49.96
2023-05-06T17:32:21.390Z,50.63
2023-05-06T17:37:25.360Z,50.96
2023-05-06T17:42:29.477Z,51.36
2023-05-06T17:47:33.609Z,51.29
2023-05-06T17:52:37.438Z,51.78
2023-05-06T17:57:41.444Z,52.05
2023-05-06T18:02:45.978Z,52.68
2023-05-06T18:07:50.427Z,53.02
2023-05-06T18:12:56.197Z,53.22
2023-05-06T18:18:00.281Z,53.91
2023-05-06T18:23:04.363Z,53.76
2023-05-06T18:28:09.131Z,53.81
2023-05-06T18:33:13.239Z,54.01
2023-05-06T18:38:17.137Z,53.68
2023-05-06T18:43:21.239Z,54.46
2023-05-06T18:48:25.150Z,54.53
2023-05-06T18:53:28.963Z,54.71
2023-05-06T18:58:33.114Z,55.05
2023-05-06T19:03:36.958Z,55.06
2023-05-06T19:08:42.243Z,55.35
2023-05-06T19:13:46.737Z,55.64
2023-05-06T19:18:50.769Z,56.20
2023-05-06T19:24:00.522Z,56.58
2023-05-06T19:29:04.431Z,55.74
2023-05-06T19:34:08.960Z,56.59
2023-05-06T19:39:13.071Z,57.41
2023-05-06T19:44:16.929Z,57.27
2023-05-06T19:49:21.076Z,57.63
2023-05-06T19:54:25.137Z,58.65
2023-05-06T19:59:28.992Z,58.12
2023-05-06T20:04:34.466Z,58.53
2023-05-06T20:09:38.273Z,59.30
2023-05-06T20:14:42.369Z,59.25
2023-05-06T20:19:47.553Z,59.66
2023-05-06T20:24:52.063Z,59.89
2023-05-06T20:29:56.102Z,60.03
2023-05-06T20:36:17.178Z,60.17
2023-05-06T20:41:22.474Z,60.51
2023-05-06T20:46:26.546Z,60.39
2023-05-06T20:51:30.617Z,60.56
2023-05-06T20:56:34.422Z,61.53
2023-05-06T21:01:38.266Z,61.37
2023-05-06T21:06:42.385Z,61.96
2023-05-06T21:11:46.706Z,61.55
2023-05-06T21:16:50.763Z,61.32
2023-05-06T21:22:14.924Z,62.00
2023-05-06T21:27:18.810Z,62.29
2023-05-06T21:32:23.118Z,62.42
2023-05-06T21:37:26.937Z,61.73
2023-05-06T21:42:31.904Z,62.29
2023-05-06T21:47:35.843Z,62.53
2023-05-06T21:52:40.376Z,62.80
2023-05-06T21:57:45.304Z,62.94
2023-05-06T22:02:50.176Z,62.66
2023-05-06T22:07:54.276Z,62.65
2023-05-06T22:12:58.985Z,63.25
2023-05-06T22:18:03.047Z,62.75
2023-05-06T22:23:07.083Z,63.70
2023-05-06T22:28:11.117Z,63.02
2023-05-06T22:33:15.260Z,63.88
2023-05-06T22:38:19.224Z,63.78
2023-05-06T22:43:23.290Z,63.17
2023-05-06T22:48:27.192Z,63.84
2023-05-06T22:53:31.484Z,64.29
2023-05-06T22:58:35.698Z,64.14
2023-05-06T23:03:39.659Z,64.72
2023-05-06T23:08:43.528Z,64.22
2023-05-06T23:13:47.913Z,64.21
2023-05-06T23:18:51.843Z,63.65
2023-05-06T23:23:56.061Z,63.89
2023-05-06T23:28:59.848Z,63.81
2023-05-06T23:34:04.379Z,63.88
2023-05-06T23:39:11.095Z,64.04
2023-05-06T23:44:15.227Z,63.42
2023-05-06T23:49:19.229Z,63.44
2023-05-06T23:54:23.267Z,63.20
2023-05-06T23:59:27.055Z,63.24
